Aqua Ramon, Colorado
Current Conditions -  °F | °C
As of 9:50 AM on Monday 22 Dec 2014 (Local Time) from KRCV Reporting Station
Overcast Overcast  
Wind Chill: -2°   Ceiling: 4100
Heat Index:   Visibility: 10mi
Dew Point: -3°   Wind: 15mph
Humidity: 62%   Direction: 270°W
Pressure: 29.75"   Gusts: 23mph
Location:  37.6359°N, 106.449°W
Report Text: KRCV 221650Z AUTO 27013G20KT 10SM SCT034 BKN041 OVC049 03/M03 A2975 RMK AO2 T00321034
Loading
Personal Weather Stations






























Interactive Weather Map New forecast layout! Learn more

10-Day Weather Forecast

Advertisements
Track Severe Weather on mobile